sensor_id;sensor_type;location;lat;lon;timestamp;P1;durP1;ratioP1;P2;durP2;ratioP2
23543;SDS011;11950;51.230;4.012;2022-07-29T00:01:00;4.85;;;2.70;;
23543;SDS011;11950;51.230;4.012;2022-07-29T00:03:26;4.47;;;2.20;;
23543;SDS011;11950;51.230;4.012;2022-07-29T00:05:53;3.35;;;2.10;;
23543;SDS011;11950;51.230;4.012;2022-07-29T00:08:19;2.97;;;1.83;;
23543;SDS011;11950;51.230;4.012;2022-07-29T00:10:45;2.50;;;1.73;;
23543;SDS011;11950;51.230;4.012;2022-07-29T00:13:12;3.33;;;1.83;;
23543;SDS011;11950;51.230;4.012;2022-07-29T00:15:38;3.72;;;1.33;;
23543;SDS011;11950;51.230;4.012;2022-07-29T00:18:05;2.97;;;1.67;;
23543;SDS011;11950;51.230;4.012;2022-07-29T00:20:32;4.13;;;1.80;;
23543;SDS011;11950;51.230;4.012;2022-07-29T00:22:58;3.58;;;1.98;;
23543;SDS011;11950;51.230;4.012;2022-07-29T00:25:24;2.95;;;1.80;;
23543;SDS011;11950;51.230;4.012;2022-07-29T00:27:50;2.80;;;1.50;;
23543;SDS011;11950;51.230;4.012;2022-07-29T00:30:16;3.55;;;1.52;;
23543;SDS011;11950;51.230;4.012;2022-07-29T00:32:43;3.95;;;1.90;;
23543;SDS011;11950;51.230;4.012;2022-07-29T00:35:09;5.10;;;1.88;;
23543;SDS011;11950;51.230;4.012;2022-07-29T00:37:54;3.60;;;2.10;;
23543;SDS011;11950;51.230;4.012;2022-07-29T00:40:20;5.40;;;2.03;;
23543;SDS011;11950;51.230;4.012;2022-07-29T00:42:47;3.65;;;2.15;;
23543;SDS011;11950;51.230;4.012;2022-07-29T00:45:15;4.05;;;2.30;;
23543;SDS011;11950;51.230;4.012;2022-07-29T00:47:42;3.53;;;2.00;;
23543;SDS011;11950;51.230;4.012;2022-07-29T00:50:09;2.72;;;2.15;;
23543;SDS011;11950;51.230;4.012;2022-07-29T00:52:37;2.80;;;1.65;;
23543;SDS011;11950;51.230;4.012;2022-07-29T00:55:05;1.90;;;1.60;;
23543;SDS011;11950;51.230;4.012;2022-07-29T00:57:34;5.30;;;1.55;;
23543;SDS011;11950;51.230;4.012;2022-07-29T01:00:03;2.25;;;1.30;;
23543;SDS011;11950;51.230;4.012;2022-07-29T01:02:31;3.95;;;1.20;;
23543;SDS011;11950;51.230;4.012;2022-07-29T01:04:57;3.92;;;1.23;;
23543;SDS011;11950;51.230;4.012;2022-07-29T01:07:27;3.13;;;1.27;;
23543;SDS011;11950;51.230;4.012;2022-07-29T01:09:54;2.47;;;1.38;;
23543;SDS011;11950;51.230;4.012;2022-07-29T01:12:24;2.53;;;1.08;;
23543;SDS011;11950;51.230;4.012;2022-07-29T01:14:52;6.15;;;1.83;;
23543;SDS011;11950;51.230;4.012;2022-07-29T01:17:23;3.28;;;1.20;;
23543;SDS011;11950;51.230;4.012;2022-07-29T01:20:44;2.63;;;1.15;;
23543;SDS011;11950;51.230;4.012;2022-07-29T01:29:11;3.00;;;1.75;;
23543;SDS011;11950;51.230;4.012;2022-07-29T01:40:19;4.63;;;1.00;;
23543;SDS011;11950;51.230;4.012;2022-07-29T01:42:59;2.72;;;1.05;;
23543;SDS011;11950;51.230;4.012;2022-07-29T01:45:45;3.47;;;0.95;;
23543;SDS011;11950;51.230;4.012;2022-07-29T01:48:18;4.25;;;0.90;;
23543;SDS011;11950;51.230;4.012;2022-07-29T01:53:46;3.67;;;0.88;;
23543;SDS011;11950;51.230;4.012;2022-07-29T01:56:17;10.13;;;1.00;;
23543;SDS011;11950;51.230;4.012;2022-07-29T01:58:45;2.03;;;1.00;;
23543;SDS011;11950;51.230;4.012;2022-07-29T02:01:13;1.92;;;0.95;;
23543;SDS011;11950;51.230;4.012;2022-07-29T02:03:43;0.98;;;0.90;;
23543;SDS011;11950;51.230;4.012;2022-07-29T02:06:10;2.95;;;0.90;;
23543;SDS011;11950;51.230;4.012;2022-07-29T02:08:38;2.80;;;0.85;;
23543;SDS011;11950;51.230;4.012;2022-07-29T02:11:05;5.45;;;1.67;;
23543;SDS011;11950;51.230;4.012;2022-07-29T02:13:34;2.03;;;1.05;;
23543;SDS011;11950;51.230;4.012;2022-07-29T02:16:02;2.20;;;1.10;;
23543;SDS011;11950;51.230;4.012;2022-07-29T02:18:32;1.13;;;1.02;;
23543;SDS011;11950;51.230;4.012;2022-07-29T02:21:01;2.75;;;1.02;;
23543;SDS011;11950;51.230;4.012;2022-07-29T02:23:28;2.45;;;1.00;;
23543;SDS011;11950;51.230;4.012;2022-07-29T02:25:58;3.45;;;1.00;;
23543;SDS011;11950;51.230;4.012;2022-07-29T02:28:28;2.67;;;1.00;;
23543;SDS011;11950;51.230;4.012;2022-07-29T02:33:24;1.50;;;1.10;;
23543;SDS011;11950;51.230;4.012;2022-07-29T02:35:52;1.20;;;1.00;;
23543;SDS011;11950;51.230;4.012;2022-07-29T02:38:19;3.10;;;1.20;;
23543;SDS011;11950;51.230;4.012;2022-07-29T02:41:10;3.33;;;1.20;;
23543;SDS011;11950;51.230;4.012;2022-07-29T02:43:39;3.40;;;1.20;;
23543;SDS011;11950;51.230;4.012;2022-07-29T02:46:11;1.38;;;1.10;;
23543;SDS011;11950;51.230;4.012;2022-07-29T02:48:51;2.15;;;1.05;;
23543;SDS011;11950;51.230;4.012;2022-07-29T02:51:28;1.65;;;1.20;;
23543;SDS011;11950;51.230;4.012;2022-07-29T02:54:01;4.03;;;1.40;;
23543;SDS011;11950;51.230;4.012;2022-07-29T02:56:32;3.03;;;2.03;;
23543;SDS011;11950;51.230;4.012;2022-07-29T02:59:04;2.05;;;1.30;;
23543;SDS011;11950;51.230;4.012;2022-07-29T03:01:35;1.45;;;1.17;;
23543;SDS011;11950;51.230;4.012;2022-07-29T03:04:07;1.10;;;1.00;;
23543;SDS011;11950;51.230;4.012;2022-07-29T03:06:36;3.08;;;1.65;;
23543;SDS011;11950;51.230;4.012;2022-07-29T03:09:04;3.38;;;1.13;;
23543;SDS011;11950;51.230;4.012;2022-07-29T03:11:32;2.30;;;1.10;;
23543;SDS011;11950;51.230;4.012;2022-07-29T03:14:00;1.83;;;1.20;;
23543;SDS011;11950;51.230;4.012;2022-07-29T03:16:27;2.67;;;1.05;;
23543;SDS011;11950;51.230;4.012;2022-07-29T03:18:54;2.90;;;1.25;;
23543;SDS011;11950;51.230;4.012;2022-07-29T03:21:20;2.28;;;1.05;;
23543;SDS011;11950;51.230;4.012;2022-07-29T03:23:47;2.08;;;1.10;;
23543;SDS011;11950;51.230;4.012;2022-07-29T03:26:13;2.78;;;1.20;;
23543;SDS011;11950;51.230;4.012;2022-07-29T03:28:39;2.13;;;1.20;;
23543;SDS011;11950;51.230;4.012;2022-07-29T03:31:06;1.13;;;1.02;;
23543;SDS011;11950;51.230;4.012;2022-07-29T03:33:32;2.10;;;1.10;;
23543;SDS011;11950;51.230;4.012;2022-07-29T03:35:58;2.83;;;1.10;;
23543;SDS011;11950;51.230;4.012;2022-07-29T03:38:25;2.28;;;1.30;;
23543;SDS011;11950;51.230;4.012;2022-07-29T03:40:58;2.35;;;1.27;;
23543;SDS011;11950;51.230;4.012;2022-07-29T03:43:32;3.30;;;1.48;;
23543;SDS011;11950;51.230;4.012;2022-07-29T03:46:01;1.88;;;1.23;;
23543;SDS011;11950;51.230;4.012;2022-07-29T03:48:30;1.10;;;1.00;;
23543;SDS011;11950;51.230;4.012;2022-07-29T03:51:01;1.88;;;1.00;;
23543;SDS011;11950;51.230;4.012;2022-07-29T03:53:28;1.75;;;1.17;;
23543;SDS011;11950;51.230;4.012;2022-07-29T03:55:55;1.45;;;1.20;;
23543;SDS011;11950;51.230;4.012;2022-07-29T03:58:26;5.30;;;1.10;;
23543;SDS011;11950;51.230;4.012;2022-07-29T04:00:54;1.90;;;1.20;;
23543;SDS011;11950;51.230;4.012;2022-07-29T04:03:21;2.63;;;1.10;;
23543;SDS011;11950;51.230;4.012;2022-07-29T04:05:57;1.40;;;1.00;;
23543;SDS011;11950;51.230;4.012;2022-07-29T04:08:28;1.45;;;0.95;;
23543;SDS011;11950;51.230;4.012;2022-07-29T04:10:54;3.17;;;1.10;;
23543;SDS011;11950;51.230;4.012;2022-07-29T04:13:20;2.05;;;1.15;;
23543;SDS011;11950;51.230;4.012;2022-07-29T04:15:47;2.25;;;1.30;;
23543;SDS011;11950;51.230;4.012;2022-07-29T04:18:13;2.85;;;1.40;;
23543;SDS011;11950;51.230;4.012;2022-07-29T04:20:39;1.83;;;1.38;;
23543;SDS011;11950;51.230;4.012;2022-07-29T04:23:05;1.92;;;1.20;;
23543;SDS011;11950;51.230;4.012;2022-07-29T04:25:32;2.30;;;1.10;;
23543;SDS011;11950;51.230;4.012;2022-07-29T04:27:58;4.07;;;1.80;;
23543;SDS011;11950;51.230;4.012;2022-07-29T04:30:28;2.45;;;1.30;;
23543;SDS011;11950;51.230;4.012;2022-07-29T04:32:55;1.52;;;1.20;;
23543;SDS011;11950;51.230;4.012;2022-07-29T04:35:22;4.10;;;1.30;;
23543;SDS011;11950;51.230;4.012;2022-07-29T04:37:48;2.70;;;1.17;;
23543;SDS011;11950;51.230;4.012;2022-07-29T04:40:14;1.42;;;1.02;;
23543;SDS011;11950;51.230;4.012;2022-07-29T04:42:41;1.83;;;1.33;;
23543;SDS011;11950;51.230;4.012;2022-07-29T04:45:07;1.50;;;1.17;;
23543;SDS011;11950;51.230;4.012;2022-07-29T04:47:33;2.60;;;1.08;;
23543;SDS011;11950;51.230;4.012;2022-07-29T04:50:00;1.50;;;1.10;;
23543;SDS011;11950;51.230;4.012;2022-07-29T04:52:26;2.10;;;1.10;;
23543;SDS011;11950;51.230;4.012;2022-07-29T04:54:52;4.05;;;1.60;;
23543;SDS011;11950;51.230;4.012;2022-07-29T04:57:19;3.15;;;1.40;;
23543;SDS011;11950;51.230;4.012;2022-07-29T04:59:45;1.48;;;1.20;;
23543;SDS011;11950;51.230;4.012;2022-07-29T05:02:11;1.80;;;1.23;;
23543;SDS011;11950;51.230;4.012;2022-07-29T05:04:37;3.55;;;1.30;;
23543;SDS011;11950;51.230;4.012;2022-07-29T05:07:04;2.42;;;1.33;;
23543;SDS011;11950;51.230;4.012;2022-07-29T05:09:30;2.72;;;1.38;;
23543;SDS011;11950;51.230;4.012;2022-07-29T05:11:57;2.78;;;1.30;;
23543;SDS011;11950;51.230;4.012;2022-07-29T05:14:24;3.92;;;1.35;;
23543;SDS011;11950;51.230;4.012;2022-07-29T05:16:50;1.42;;;1.10;;
23543;SDS011;11950;51.230;4.012;2022-07-29T05:19:18;2.47;;;1.30;;
23543;SDS011;11950;51.230;4.012;2022-07-29T05:21:44;1.40;;;1.30;;
23543;SDS011;11950;51.230;4.012;2022-07-29T05:24:11;3.53;;;1.30;;
23543;SDS011;11950;51.230;4.012;2022-07-29T05:26:37;4.85;;;1.60;;
23543;SDS011;11950;51.230;4.012;2022-07-29T05:29:04;1.88;;;1.45;;
23543;SDS011;11950;51.230;4.012;2022-07-29T05:31:30;1.33;;;1.20;;
23543;SDS011;11950;51.230;4.012;2022-07-29T05:33:56;1.60;;;1.30;;
23543;SDS011;11950;51.230;4.012;2022-07-29T05:36:22;1.95;;;1.10;;
23543;SDS011;11950;51.230;4.012;2022-07-29T05:38:49;1.45;;;1.35;;
23543;SDS011;11950;51.230;4.012;2022-07-29T05:41:16;1.67;;;1.40;;
23543;SDS011;11950;51.230;4.012;2022-07-29T05:43:42;2.28;;;1.20;;
23543;SDS011;11950;51.230;4.012;2022-07-29T05:46:08;2.30;;;1.50;;
23543;SDS011;11950;51.230;4.012;2022-07-29T05:48:35;4.68;;;1.58;;
23543;SDS011;11950;51.230;4.012;2022-07-29T05:51:01;4.75;;;2.35;;
23543;SDS011;11950;51.230;4.012;2022-07-29T05:53:28;2.90;;;1.70;;
23543;SDS011;11950;51.230;4.012;2022-07-29T05:55:54;2.47;;;1.80;;
23543;SDS011;11950;51.230;4.012;2022-07-29T05:58:20;4.47;;;2.30;;
23543;SDS011;11950;51.230;4.012;2022-07-29T06:00:47;3.65;;;2.30;;
23543;SDS011;11950;51.230;4.012;2022-07-29T06:03:13;2.83;;;2.20;;
23543;SDS011;11950;51.230;4.012;2022-07-29T06:05:39;5.30;;;2.58;;
23543;SDS011;11950;51.230;4.012;2022-07-29T06:08:06;4.90;;;2.75;;
23543;SDS011;11950;51.230;4.012;2022-07-29T06:10:34;3.25;;;2.28;;
23543;SDS011;11950;51.230;4.012;2022-07-29T06:13:00;6.00;;;2.47;;
23543;SDS011;11950;51.230;4.012;2022-07-29T06:15:27;3.75;;;2.30;;
23543;SDS011;11950;51.230;4.012;2022-07-29T06:17:53;9.10;;;2.30;;
23543;SDS011;11950;51.230;4.012;2022-07-29T06:20:19;4.82;;;2.25;;
23543;SDS011;11950;51.230;4.012;2022-07-29T06:22:46;4.93;;;2.13;;
23543;SDS011;11950;51.230;4.012;2022-07-29T06:25:12;2.58;;;2.13;;
23543;SDS011;11950;51.230;4.012;2022-07-29T06:27:39;4.68;;;2.17;;
23543;SDS011;11950;51.230;4.012;2022-07-29T06:30:05;6.10;;;2.30;;
23543;SDS011;11950;51.230;4.012;2022-07-29T06:32:33;2.42;;;1.95;;
23543;SDS011;11950;51.230;4.012;2022-07-29T06:35:00;4.93;;;1.83;;
23543;SDS011;11950;51.230;4.012;2022-07-29T06:37:27;3.92;;;1.90;;
23543;SDS011;11950;51.230;4.012;2022-07-29T06:39:53;3.55;;;1.70;;
23543;SDS011;11950;51.230;4.012;2022-07-29T06:42:43;4.13;;;2.15;;
23543;SDS011;11950;51.230;4.012;2022-07-29T06:45:10;3.63;;;2.30;;
23543;SDS011;11950;51.230;4.012;2022-07-29T06:47:37;5.07;;;1.83;;
23543;SDS011;11950;51.230;4.012;2022-07-29T06:50:04;5.40;;;2.70;;
23543;SDS011;11950;51.230;4.012;2022-07-29T06:52:31;6.57;;;2.08;;
23543;SDS011;11950;51.230;4.012;2022-07-29T06:54:57;3.42;;;1.85;;
23543;SDS011;11950;51.230;4.012;2022-07-29T06:57:24;6.03;;;2.00;;
23543;SDS011;11950;51.230;4.012;2022-07-29T06:59:51;4.88;;;1.90;;
23543;SDS011;11950;51.230;4.012;2022-07-29T07:02:18;3.58;;;2.28;;
23543;SDS011;11950;51.230;4.012;2022-07-29T07:04:44;2.78;;;2.17;;
23543;SDS011;11950;51.230;4.012;2022-07-29T07:07:10;4.70;;;2.13;;
23543;SDS011;11950;51.230;4.012;2022-07-29T07:09:36;3.58;;;2.30;;
23543;SDS011;11950;51.230;4.012;2022-07-29T07:12:03;3.88;;;1.90;;
23543;SDS011;11950;51.230;4.012;2022-07-29T07:14:29;5.55;;;2.03;;
23543;SDS011;11950;51.230;4.012;2022-07-29T07:16:55;4.63;;;2.40;;
23543;SDS011;11950;51.230;4.012;2022-07-29T07:19:21;6.88;;;2.05;;
23543;SDS011;11950;51.230;4.012;2022-07-29T07:21:48;2.33;;;1.40;;
23543;SDS011;11950;51.230;4.012;2022-07-29T07:24:14;3.30;;;1.50;;
23543;SDS011;11950;51.230;4.012;2022-07-29T07:26:41;2.95;;;1.60;;
23543;SDS011;11950;51.230;4.012;2022-07-29T07:29:07;2.90;;;2.03;;
23543;SDS011;11950;51.230;4.012;2022-07-29T07:31:33;2.25;;;2.05;;
23543;SDS011;11950;51.230;4.012;2022-07-29T07:34:00;2.22;;;1.73;;
23543;SDS011;11950;51.230;4.012;2022-07-29T07:36:26;3.65;;;1.40;;
23543;SDS011;11950;51.230;4.012;2022-07-29T07:38:52;2.92;;;1.30;;
23543;SDS011;11950;51.230;4.012;2022-07-29T07:41:18;3.17;;;1.90;;
23543;SDS011;11950;51.230;4.012;2022-07-29T07:43:45;5.72;;;2.17;;
23543;SDS011;11950;51.230;4.012;2022-07-29T07:46:11;3.22;;;1.67;;
23543;SDS011;11950;51.230;4.012;2022-07-29T07:48:38;3.00;;;2.42;;
23543;SDS011;11950;51.230;4.012;2022-07-29T07:51:04;2.50;;;2.00;;
23543;SDS011;11950;51.230;4.012;2022-07-29T07:53:30;5.68;;;1.88;;
23543;SDS011;11950;51.230;4.012;2022-07-29T07:55:56;3.08;;;1.85;;
23543;SDS011;11950;51.230;4.012;2022-07-29T07:58:23;3.72;;;2.35;;
23543;SDS011;11950;51.230;4.012;2022-07-29T08:00:49;2.60;;;2.03;;
23543;SDS011;11950;51.230;4.012;2022-07-29T08:03:15;3.58;;;2.22;;
23543;SDS011;11950;51.230;4.012;2022-07-29T08:05:42;3.63;;;2.40;;
23543;SDS011;11950;51.230;4.012;2022-07-29T08:08:08;3.75;;;2.10;;
23543;SDS011;11950;51.230;4.012;2022-07-29T08:10:34;5.47;;;2.22;;
23543;SDS011;11950;51.230;4.012;2022-07-29T08:13:20;4.75;;;2.13;;
23543;SDS011;11950;51.230;4.012;2022-07-29T08:15:47;2.47;;;1.60;;
23543;SDS011;11950;51.230;4.012;2022-07-29T08:18:26;5.18;;;2.15;;
23543;SDS011;11950;51.230;4.012;2022-07-29T08:20:53;4.07;;;1.80;;
23543;SDS011;11950;51.230;4.012;2022-07-29T08:23:20;3.97;;;1.70;;
23543;SDS011;11950;51.230;4.012;2022-07-29T08:25:48;4.50;;;1.83;;
23543;SDS011;11950;51.230;4.012;2022-07-29T08:28:15;3.78;;;1.70;;
23543;SDS011;11950;51.230;4.012;2022-07-29T08:30:42;3.90;;;2.00;;
23543;SDS011;11950;51.230;4.012;2022-07-29T08:33:09;3.65;;;1.92;;
23543;SDS011;11950;51.230;4.012;2022-07-29T08:35:35;5.15;;;2.15;;
23543;SDS011;11950;51.230;4.012;2022-07-29T08:38:01;2.35;;;1.77;;
23543;SDS011;11950;51.230;4.012;2022-07-29T08:40:28;4.70;;;1.42;;
23543;SDS011;11950;51.230;4.012;2022-07-29T08:42:55;3.17;;;1.90;;
23543;SDS011;11950;51.230;4.012;2022-07-29T08:45:22;5.13;;;2.08;;
23543;SDS011;11950;51.230;4.012;2022-07-29T08:47:49;2.75;;;1.60;;
23543;SDS011;11950;51.230;4.012;2022-07-29T08:50:15;5.20;;;1.52;;
23543;SDS011;11950;51.230;4.012;2022-07-29T08:52:42;3.17;;;1.50;;
23543;SDS011;11950;51.230;4.012;2022-07-29T08:55:09;2.95;;;1.20;;
23543;SDS011;11950;51.230;4.012;2022-07-29T08:57:36;2.58;;;1.30;;
23543;SDS011;11950;51.230;4.012;2022-07-29T09:00:05;3.15;;;1.50;;
23543;SDS011;11950;51.230;4.012;2022-07-29T09:02:39;2.53;;;1.30;;
23543;SDS011;11950;51.230;4.012;2022-07-29T09:05:07;5.13;;;1.30;;
23543;SDS011;11950;51.230;4.012;2022-07-29T09:07:33;4.88;;;1.40;;
23543;SDS011;11950;51.230;4.012;2022-07-29T09:10:01;2.33;;;1.35;;
23543;SDS011;11950;51.230;4.012;2022-07-29T09:12:29;2.20;;;1.20;;
23543;SDS011;11950;51.230;4.012;2022-07-29T09:14:56;5.45;;;1.30;;
23543;SDS011;11950;51.230;4.012;2022-07-29T09:20:11;4.38;;;1.10;;
23543;SDS011;11950;51.230;4.012;2022-07-29T09:22:39;3.45;;;1.15;;
23543;SDS011;11950;51.230;4.012;2022-07-29T09:25:05;4.20;;;2.22;;
23543;SDS011;11950;51.230;4.012;2022-07-29T09:27:32;3.97;;;1.10;;
23543;SDS011;11950;51.230;4.012;2022-07-29T09:30:00;3.38;;;1.60;;
23543;SDS011;11950;51.230;4.012;2022-07-29T09:32:54;4.38;;;1.40;;
23543;SDS011;11950;51.230;4.012;2022-07-29T09:35:23;4.15;;;1.33;;
23543;SDS011;11950;51.230;4.012;2022-07-29T09:37:51;2.95;;;1.40;;
23543;SDS011;11950;51.230;4.012;2022-07-29T09:40:27;2.78;;;1.52;;
23543;SDS011;11950;51.230;4.012;2022-07-29T09:42:54;2.40;;;1.73;;
23543;SDS011;11950;51.230;4.012;2022-07-29T09:45:29;4.53;;;1.50;;
23543;SDS011;11950;51.230;4.012;2022-07-29T09:47:57;9.00;;;1.65;;
23543;SDS011;11950;51.230;4.012;2022-07-29T09:50:38;7.70;;;1.95;;
23543;SDS011;11950;51.230;4.012;2022-07-29T09:53:05;5.30;;;1.30;;
23543;SDS011;11950;51.230;4.012;2022-07-29T09:55:50;5.07;;;1.23;;
23543;SDS011;11950;51.230;4.012;2022-07-29T09:58:18;1.15;;;0.95;;
23543;SDS011;11950;51.230;4.012;2022-07-29T10:00:45;3.80;;;0.90;;
23543;SDS011;11950;51.230;4.012;2022-07-29T10:03:16;4.57;;;1.00;;
23543;SDS011;11950;51.230;4.012;2022-07-29T10:05:44;1.42;;;1.00;;
23543;SDS011;11950;51.230;4.012;2022-07-29T10:08:11;2.63;;;1.30;;
23543;SDS011;11950;51.230;4.012;2022-07-29T10:10:39;2.92;;;1.20;;
23543;SDS011;11950;51.230;4.012;2022-07-29T10:13:11;4.70;;;1.30;;
23543;SDS011;11950;51.230;4.012;2022-07-29T10:15:40;4.05;;;1.40;;
23543;SDS011;11950;51.230;4.012;2022-07-29T10:18:10;3.92;;;1.42;;
23543;SDS011;11950;51.230;4.012;2022-07-29T10:20:38;3.17;;;1.63;;
23543;SDS011;11950;51.230;4.012;2022-07-29T10:23:04;2.45;;;1.40;;
23543;SDS011;11950;51.230;4.012;2022-07-29T10:25:31;3.35;;;1.10;;
23543;SDS011;11950;51.230;4.012;2022-07-29T10:27:58;4.63;;;1.67;;
23543;SDS011;11950;51.230;4.012;2022-07-29T10:30:25;10.82;;;2.72;;
23543;SDS011;11950;51.230;4.012;2022-07-29T10:46:48;3.40;;;1.45;;
23543;SDS011;11950;51.230;4.012;2022-07-29T10:49:16;4.47;;;1.83;;
23543;SDS011;11950;51.230;4.012;2022-07-29T10:54:17;3.00;;;1.40;;
23543;SDS011;11950;51.230;4.012;2022-07-29T10:56:43;2.40;;;0.90;;
23543;SDS011;11950;51.230;4.012;2022-07-29T11:01:46;4.97;;;1.83;;
23543;SDS011;11950;51.230;4.012;2022-07-29T11:04:14;3.10;;;1.77;;
23543;SDS011;11950;51.230;4.012;2022-07-29T11:09:26;2.05;;;1.27;;
23543;SDS011;11950;51.230;4.012;2022-07-29T11:11:52;5.53;;;1.90;;
23543;SDS011;11950;51.230;4.012;2022-07-29T11:14:28;5.22;;;1.60;;
23543;SDS011;11950;51.230;4.012;2022-07-29T11:17:24;3.83;;;2.00;;
23543;SDS011;11950;51.230;4.012;2022-07-29T11:19:51;2.67;;;1.58;;
23543;SDS011;11950;51.230;4.012;2022-07-29T11:22:33;8.18;;;2.03;;
23543;SDS011;11950;51.230;4.012;2022-07-29T11:25:16;3.28;;;1.75;;
23543;SDS011;11950;51.230;4.012;2022-07-29T11:27:46;4.05;;;1.40;;
23543;SDS011;11950;51.230;4.012;2022-07-29T11:30:12;2.95;;;1.45;;
23543;SDS011;11950;51.230;4.012;2022-07-29T11:32:40;3.38;;;2.80;;
23543;SDS011;11950;51.230;4.012;2022-07-29T11:35:17;4.68;;;1.60;;
23543;SDS011;11950;51.230;4.012;2022-07-29T11:43:45;3.50;;;1.70;;
23543;SDS011;11950;51.230;4.012;2022-07-29T11:46:12;3.22;;;1.42;;
23543;SDS011;11950;51.230;4.012;2022-07-29T11:48:42;4.97;;;1.98;;
23543;SDS011;11950;51.230;4.012;2022-07-29T11:51:09;4.38;;;1.80;;
23543;SDS011;11950;51.230;4.012;2022-07-29T11:53:37;4.22;;;1.77;;
23543;SDS011;11950;51.230;4.012;2022-07-29T11:56:07;1.42;;;1.30;;
23543;SDS011;11950;51.230;4.012;2022-07-29T11:58:35;3.95;;;1.30;;
23543;SDS011;11950;51.230;4.012;2022-07-29T12:01:02;4.28;;;1.50;;
23543;SDS011;11950;51.230;4.012;2022-07-29T12:03:30;3.92;;;1.20;;
23543;SDS011;11950;51.230;4.012;2022-07-29T12:05:57;5.00;;;1.00;;
23543;SDS011;11950;51.230;4.012;2022-07-29T12:08:23;5.80;;;1.52;;
23543;SDS011;11950;51.230;4.012;2022-07-29T12:10:51;4.25;;;1.55;;
23543;SDS011;11950;51.230;4.012;2022-07-29T12:13:19;6.63;;;1.40;;
23543;SDS011;11950;51.230;4.012;2022-07-29T12:15:56;2.88;;;1.30;;
23543;SDS011;11950;51.230;4.012;2022-07-29T12:18:23;3.30;;;1.15;;
23543;SDS011;11950;51.230;4.012;2022-07-29T12:20:56;2.72;;;2.08;;
23543;SDS011;11950;51.230;4.012;2022-07-29T12:23:24;3.00;;;1.55;;
23543;SDS011;11950;51.230;4.012;2022-07-29T12:25:50;3.55;;;1.48;;
23543;SDS011;11950;51.230;4.012;2022-07-29T12:28:17;1.95;;;1.50;;
23543;SDS011;11950;51.230;4.012;2022-07-29T12:30:45;4.65;;;1.30;;
23543;SDS011;11950;51.230;4.012;2022-07-29T12:35:48;4.65;;;1.70;;
23543;SDS011;11950;51.230;4.012;2022-07-29T12:38:28;3.53;;;1.63;;
23543;SDS011;11950;51.230;4.012;2022-07-29T12:40:55;4.00;;;1.58;;
23543;SDS011;11950;51.230;4.012;2022-07-29T12:43:22;4.25;;;1.60;;
23543;SDS011;11950;51.230;4.012;2022-07-29T12:45:50;5.50;;;1.73;;
23543;SDS011;11950;51.230;4.012;2022-07-29T12:48:36;3.25;;;1.75;;
23543;SDS011;11950;51.230;4.012;2022-07-29T12:51:07;4.80;;;1.50;;
23543;SDS011;11950;51.230;4.012;2022-07-29T12:53:35;5.45;;;1.60;;
23543;SDS011;11950;51.230;4.012;2022-07-29T12:56:02;4.65;;;1.67;;
23543;SDS011;11950;51.230;4.012;2022-07-29T12:58:40;5.15;;;1.85;;
23543;SDS011;11950;51.230;4.012;2022-07-29T13:09:14;4.60;;;1.80;;
23543;SDS011;11950;51.230;4.012;2022-07-29T13:11:46;5.45;;;1.42;;
23543;SDS011;11950;51.230;4.012;2022-07-29T13:17:09;4.00;;;1.50;;
23543;SDS011;11950;51.230;4.012;2022-07-29T13:19:39;4.85;;;1.50;;
23543;SDS011;11950;51.230;4.012;2022-07-29T13:22:07;2.08;;;1.50;;
23543;SDS011;11950;51.230;4.012;2022-07-29T13:24:45;3.40;;;1.75;;
23543;SDS011;11950;51.230;4.012;2022-07-29T13:27:11;2.25;;;1.70;;
23543;SDS011;11950;51.230;4.012;2022-07-29T13:29:40;4.40;;;1.63;;
23543;SDS011;11950;51.230;4.012;2022-07-29T13:32:06;4.57;;;1.55;;
23543;SDS011;11950;51.230;4.012;2022-07-29T13:34:32;3.25;;;1.88;;
23543;SDS011;11950;51.230;4.012;2022-07-29T13:36:59;6.75;;;2.55;;
23543;SDS011;11950;51.230;4.012;2022-07-29T13:39:25;3.95;;;1.95;;
23543;SDS011;11950;51.230;4.012;2022-07-29T13:41:51;4.47;;;2.08;;
23543;SDS011;11950;51.230;4.012;2022-07-29T13:44:18;5.45;;;2.78;;
23543;SDS011;11950;51.230;4.012;2022-07-29T13:46:44;3.00;;;2.13;;
23543;SDS011;11950;51.230;4.012;2022-07-29T13:49:10;3.92;;;1.92;;
23543;SDS011;11950;51.230;4.012;2022-07-29T13:51:37;5.40;;;1.95;;
23543;SDS011;11950;51.230;4.012;2022-07-29T13:54:03;3.13;;;1.70;;
23543;SDS011;11950;51.230;4.012;2022-07-29T13:56:30;3.35;;;2.10;;
23543;SDS011;11950;51.230;4.012;2022-07-29T13:58:56;5.82;;;2.38;;
23543;SDS011;11950;51.230;4.012;2022-07-29T14:01:23;3.85;;;1.80;;
23543;SDS011;11950;51.230;4.012;2022-07-29T14:03:49;5.47;;;2.47;;
23543;SDS011;11950;51.230;4.012;2022-07-29T14:06:16;6.95;;;2.78;;
23543;SDS011;11950;51.230;4.012;2022-07-29T14:08:42;4.60;;;1.88;;
23543;SDS011;11950;51.230;4.012;2022-07-29T14:11:09;4.88;;;2.15;;
23543;SDS011;11950;51.230;4.012;2022-07-29T14:13:35;3.90;;;2.10;;
23543;SDS011;11950;51.230;4.012;2022-07-29T14:16:01;5.68;;;2.63;;
23543;SDS011;11950;51.230;4.012;2022-07-29T14:18:27;5.75;;;2.40;;
23543;SDS011;11950;51.230;4.012;2022-07-29T14:20:54;3.13;;;2.00;;
23543;SDS011;11950;51.230;4.012;2022-07-29T14:23:20;8.30;;;2.63;;
23543;SDS011;11950;51.230;4.012;2022-07-29T14:25:46;4.38;;;2.10;;
23543;SDS011;11950;51.230;4.012;2022-07-29T14:28:12;7.18;;;1.95;;
23543;SDS011;11950;51.230;4.012;2022-07-29T14:30:39;4.43;;;2.20;;
23543;SDS011;11950;51.230;4.012;2022-07-29T14:33:05;3.03;;;1.50;;
23543;SDS011;11950;51.230;4.012;2022-07-29T14:35:31;3.70;;;2.65;;
23543;SDS011;11950;51.230;4.012;2022-07-29T14:37:58;7.88;;;3.05;;
23543;SDS011;11950;51.230;4.012;2022-07-29T14:40:24;4.75;;;2.50;;
23543;SDS011;11950;51.230;4.012;2022-07-29T14:42:51;7.30;;;3.10;;
23543;SDS011;11950;51.230;4.012;2022-07-29T14:45:18;3.97;;;2.15;;
23543;SDS011;11950;51.230;4.012;2022-07-29T14:47:44;4.57;;;2.58;;
23543;SDS011;11950;51.230;4.012;2022-07-29T14:50:10;2.85;;;1.67;;
23543;SDS011;11950;51.230;4.012;2022-07-29T14:52:36;6.13;;;1.67;;
23543;SDS011;11950;51.230;4.012;2022-07-29T14:55:03;5.65;;;2.42;;
23543;SDS011;11950;51.230;4.012;2022-07-29T14:57:30;6.68;;;1.92;;
23543;SDS011;11950;51.230;4.012;2022-07-29T14:59:56;3.15;;;2.35;;
23543;SDS011;11950;51.230;4.012;2022-07-29T15:02:22;2.67;;;2.03;;
23543;SDS011;11950;51.230;4.012;2022-07-29T15:04:49;4.25;;;1.92;;
23543;SDS011;11950;51.230;4.012;2022-07-29T15:07:15;3.47;;;1.95;;
23543;SDS011;11950;51.230;4.012;2022-07-29T15:09:42;5.63;;;2.03;;
23543;SDS011;11950;51.230;4.012;2022-07-29T15:12:10;3.67;;;1.42;;
23543;SDS011;11950;51.230;4.012;2022-07-29T15:14:37;5.47;;;1.50;;
23543;SDS011;11950;51.230;4.012;2022-07-29T15:17:03;7.72;;;1.70;;
23543;SDS011;11950;51.230;4.012;2022-07-29T15:19:30;6.18;;;1.60;;
23543;SDS011;11950;51.230;4.012;2022-07-29T15:21:56;6.60;;;1.73;;
23543;SDS011;11950;51.230;4.012;2022-07-29T15:24:23;4.00;;;1.35;;
23543;SDS011;11950;51.230;4.012;2022-07-29T15:26:49;3.90;;;1.50;;
23543;SDS011;11950;51.230;4.012;2022-07-29T15:29:15;4.88;;;1.77;;
23543;SDS011;11950;51.230;4.012;2022-07-29T15:31:42;3.85;;;1.63;;
23543;SDS011;11950;51.230;4.012;2022-07-29T15:34:08;3.85;;;1.50;;
23543;SDS011;11950;51.230;4.012;2022-07-29T15:36:35;5.70;;;1.40;;
23543;SDS011;11950;51.230;4.012;2022-07-29T15:39:01;4.43;;;1.50;;
23543;SDS011;11950;51.230;4.012;2022-07-29T15:41:27;5.70;;;1.40;;
23543;SDS011;11950;51.230;4.012;2022-07-29T15:43:54;4.57;;;1.30;;
23543;SDS011;11950;51.230;4.012;2022-07-29T15:46:20;4.55;;;1.80;;
23543;SDS011;11950;51.230;4.012;2022-07-29T15:49:05;3.17;;;1.45;;
23543;SDS011;11950;51.230;4.012;2022-07-29T15:51:32;3.92;;;1.70;;
23543;SDS011;11950;51.230;4.012;2022-07-29T15:54:00;5.13;;;1.40;;
23543;SDS011;11950;51.230;4.012;2022-07-29T15:56:28;9.18;;;1.40;;
23543;SDS011;11950;51.230;4.012;2022-07-29T15:58:54;4.97;;;1.58;;